createdAt,value
2023-04-15T00:02:23.133Z,9.24
2023-04-15T00:04:55.438Z,9.18
2023-04-15T00:07:27.946Z,9.09
2023-04-15T00:10:00.765Z,9.05
2023-04-15T00:12:32.999Z,8.97
2023-04-15T00:15:05.575Z,8.92
2023-04-15T00:17:39.243Z,8.82
2023-04-15T00:20:13.155Z,8.69
2023-04-15T00:22:45.481Z,8.63
2023-04-15T00:25:18.349Z,8.62
2023-04-15T00:27:50.451Z,8.58
2023-04-15T00:30:24.106Z,8.53
2023-04-15T00:32:56.633Z,8.50
2023-04-15T00:35:28.777Z,8.46
2023-04-15T00:38:01.049Z,8.35
2023-04-15T00:40:33.551Z,8.31
2023-04-15T00:43:05.767Z,8.26
2023-04-15T00:45:38.562Z,8.21
2023-04-15T00:48:11.625Z,8.12
2023-04-15T00:50:43.781Z,8.02
2023-04-15T00:53:15.823Z,7.99
2023-04-15T00:55:48.009Z,7.91
2023-04-15T00:58:21.397Z,7.84
2023-04-15T01:00:55.197Z,7.77
2023-04-15T01:03:27.907Z,7.68
2023-04-15T01:06:03.968Z,7.64
2023-04-15T01:08:36.517Z,7.63
2023-04-15T01:11:09.704Z,7.61
2023-04-15T01:13:42.659Z,7.55
2023-04-15T01:16:15.561Z,7.45
2023-04-15T01:18:48.648Z,7.44
2023-04-15T01:21:22.062Z,7.57
2023-04-15T01:23:56.994Z,7.69
2023-04-15T01:26:29.337Z,7.67
2023-04-15T01:29:01.612Z,7.69
2023-04-15T01:31:34.222Z,7.80
2023-04-15T01:34:07.161Z,7.83
2023-04-15T01:36:39.326Z,7.85
2023-04-15T01:39:11.614Z,7.87
2023-04-15T01:41:44.273Z,7.91
2023-04-15T01:44:16.537Z,7.93
2023-04-15T01:46:48.601Z,7.82
2023-04-15T01:49:21.036Z,7.82
2023-04-15T01:51:54.264Z,7.87
2023-04-15T01:54:26.591Z,7.81
2023-04-15T01:56:59.076Z,7.79
2023-04-15T01:59:32.328Z,7.73
2023-04-15T02:02:04.740Z,7.65
2023-04-15T02:04:37.024Z,7.54
2023-04-15T02:07:09.200Z,7.48
2023-04-15T02:09:41.389Z,7.39
2023-04-15T02:12:14.098Z,7.33
2023-04-15T02:14:46.316Z,7.24
2023-04-15T02:17:18.363Z,7.17
2023-04-15T02:19:50.653Z,7.14
2023-04-15T02:22:22.774Z,7.12
2023-04-15T02:24:55.011Z,7.08
2023-04-15T02:27:28.338Z,7.03
2023-04-15T02:30:00.684Z,7.01
2023-04-15T02:32:32.946Z,6.99
2023-04-15T02:35:07.767Z,6.96
2023-04-15T02:37:44.079Z,6.99
2023-04-15T02:40:17.225Z,7.01
2023-04-15T02:42:49.540Z,7.06
2023-04-15T02:45:24.249Z,7.07
2023-04-15T02:47:57.459Z,7.05
2023-04-15T02:50:30.059Z,7.02
2023-04-15T02:53:02.818Z,6.98
2023-04-15T02:55:35.034Z,6.94
2023-04-15T02:58:07.228Z,6.85
2023-04-15T03:00:39.385Z,6.75
2023-04-15T03:03:12.193Z,6.66
2023-04-15T03:05:45.563Z,6.66
2023-04-15T03:08:17.817Z,6.66
2023-04-15T03:10:52.563Z,6.66
2023-04-15T03:13:24.728Z,6.58
2023-04-15T03:15:57.077Z,6.48
2023-04-15T03:18:29.810Z,6.39
2023-04-15T03:21:06.525Z,6.40
2023-04-15T03:23:40.366Z,6.41
2023-04-15T03:26:24.911Z,6.34
2023-04-15T03:28:58.393Z,6.33
2023-04-15T03:31:30.636Z,6.28
2023-04-15T03:34:02.828Z,6.26
2023-04-15T03:36:35.037Z,6.22
2023-04-15T03:39:07.198Z,6.21
2023-04-15T03:41:39.254Z,6.17
2023-04-15T03:44:11.400Z,6.13
2023-04-15T03:46:43.684Z,6.11
2023-04-15T03:49:17.123Z,6.09
2023-04-15T03:51:49.260Z,6.06
2023-04-15T03:54:21.361Z,6.03
2023-04-15T03:56:53.508Z,6.03
2023-04-15T03:59:25.725Z,6.02
2023-04-15T04:01:57.922Z,5.98
2023-04-15T04:04:30.270Z,6.02
2023-04-15T04:07:02.479Z,5.96
2023-04-15T04:09:34.892Z,5.95
2023-04-15T04:12:07.073Z,5.87
2023-04-15T04:14:39.222Z,5.76
2023-04-15T04:17:11.868Z,5.59
2023-04-15T04:19:44.087Z,5.54
2023-04-15T04:22:16.417Z,5.47
2023-04-15T04:24:48.486Z,5.45
2023-04-15T04:27:20.536Z,5.47
2023-04-15T04:29:52.577Z,5.56
2023-04-15T04:32:24.821Z,5.72
2023-04-15T04:34:57.098Z,5.85
2023-04-15T04:37:29.157Z,5.91
2023-04-15T04:40:01.223Z,5.97
2023-04-15T04:42:33.270Z,5.93
2023-04-15T04:45:05.800Z,5.92
2023-04-15T04:47:37.878Z,5.88
2023-04-15T04:50:11.797Z,5.89
2023-04-15T04:52:43.966Z,5.99
2023-04-15T04:55:16.104Z,6.01
2023-04-15T04:57:48.408Z,6.12
2023-04-15T05:00:21.397Z,6.32
2023-04-15T05:02:53.686Z,6.44
2023-04-15T05:05:26.314Z,6.62
2023-04-15T05:07:58.421Z,6.68
2023-04-15T05:10:30.623Z,6.58
2023-04-15T05:13:02.927Z,6.67
2023-04-15T05:15:37.155Z,6.80
2023-04-15T05:18:09.477Z,6.81
2023-04-15T05:20:41.995Z,6.80
2023-04-15T05:23:14.270Z,6.92
2023-04-15T05:25:46.420Z,7.04
2023-04-15T05:28:18.680Z,7.20
2023-04-15T05:30:51.198Z,7.38
2023-04-15T05:33:23.580Z,7.51
2023-04-15T05:35:55.855Z,7.64
2023-04-15T05:38:28.076Z,7.71
2023-04-15T05:41:00.184Z,7.78
2023-04-15T05:43:32.206Z,7.86
2023-04-15T05:46:04.504Z,7.88
2023-04-15T05:48:36.916Z,7.91
2023-04-15T05:51:11.161Z,8.02
2023-04-15T05:53:43.101Z,8.17
2023-04-15T05:56:15.155Z,8.20
2023-04-15T05:58:47.276Z,8.23
2023-04-15T06:01:19.376Z,8.30
2023-04-15T06:03:51.777Z,8.40
2023-04-15T06:06:24.427Z,8.46
2023-04-15T06:08:57.634Z,8.49
2023-04-15T06:11:29.912Z,8.54
2023-04-15T06:14:02.202Z,8.59
2023-04-15T06:16:34.309Z,8.65
2023-04-15T06:19:06.430Z,8.65
2023-04-15T06:21:39.194Z,8.59
2023-04-15T06:24:11.467Z,8.60
2023-04-15T06:26:43.540Z,8.65
2023-04-15T06:29:15.798Z,8.66
2023-04-15T06:31:48.781Z,8.71
2023-04-15T06:34:21.106Z,8.76
2023-04-15T06:36:54.871Z,8.84
2023-04-15T06:39:27.129Z,8.89
2023-04-15T06:41:59.315Z,8.93
2023-04-15T06:44:33.810Z,8.93
2023-04-15T06:47:06.460Z,9.05
2023-04-15T06:49:38.740Z,9.11
2023-04-15T06:52:11.586Z,9.24
2023-04-15T06:54:43.878Z,9.39
2023-04-15T06:57:16.263Z,9.58
2023-04-15T06:59:48.681Z,9.79
2023-04-15T07:02:20.942Z,10.02
2023-04-15T07:04:53.162Z,10.27
2023-04-15T07:07:25.808Z,10.49
2023-04-15T07:09:57.895Z,10.71
2023-04-15T07:12:30.742Z,10.99
2023-04-15T07:15:02.824Z,11.23
2023-04-15T07:17:35.546Z,11.46
2023-04-15T07:20:09.302Z,11.62
2023-04-15T07:22:41.726Z,11.73
2023-04-15T07:25:14.178Z,11.93
2023-04-15T07:27:46.722Z,12.10
2023-04-15T07:30:19.312Z,12.30
2023-04-15T07:32:51.570Z,12.53
2023-04-15T07:35:24.055Z,12.66
2023-04-15T07:37:56.384Z,12.78
2023-04-15T07:40:28.797Z,12.99
2023-04-15T07:43:01.070Z,13.20
2023-04-15T07:45:33.465Z,13.29
2023-04-15T07:48:06.745Z,13.40
2023-04-15T07:50:39.447Z,13.49
2023-04-15T07:53:11.800Z,13.44
2023-04-15T07:55:43.884Z,13.41
2023-04-15T07:58:15.963Z,13.47
2023-04-15T08:00:48.131Z,13.53
2023-04-15T08:03:20.467Z,13.56
2023-04-15T08:05:52.857Z,13.56
2023-04-15T08:08:25.741Z,13.52
2023-04-15T08:10:57.931Z,13.49
2023-04-15T08:13:30.381Z,13.46
2023-04-15T08:16:20.912Z,13.48
2023-04-15T08:18:54.492Z,13.47
2023-04-15T08:21:27.806Z,13.52
2023-04-15T08:24:00.409Z,13.57
2023-04-15T08:26:32.777Z,13.53
2023-04-15T08:29:05.126Z,13.57
2023-04-15T08:31:37.852Z,13.70
2023-04-15T08:34:10.572Z,13.77
2023-04-15T08:36:44.525Z,13.99
2023-04-15T08:39:51.026Z,14.20
2023-04-15T08:42:32.696Z,14.08
2023-04-15T08:45:10.501Z,14.09
2023-04-15T08:47:44.576Z,14.20
2023-04-15T08:50:18.097Z,14.22
2023-04-15T08:52:50.204Z,14.36
2023-04-15T08:55:24.080Z,14.43
2023-04-15T08:57:56.270Z,14.37
2023-04-15T09:00:29.739Z,14.34
2023-04-15T09:03:02.403Z,14.24
2023-04-15T09:05:36.680Z,14.07
2023-04-15T09:08:09.188Z,14.04
2023-04-15T09:10:41.383Z,13.99
2023-04-15T09:13:14.019Z,13.99
2023-04-15T09:15:46.805Z,14.19
2023-04-15T09:18:31.249Z,14.37
2023-04-15T09:21:11.447Z,14.61
2023-04-15T09:23:56.210Z,14.81
2023-04-15T09:26:36.474Z,15.01
2023-04-15T09:29:10.566Z,15.09
2023-04-15T09:31:43.786Z,15.13
2023-04-15T09:34:15.964Z,15.31
2023-04-15T09:36:58.407Z,15.34
2023-04-15T09:39:46.394Z,15.33
2023-04-15T09:42:24.542Z,15.43
2023-04-15T09:44:57.220Z,15.67
2023-04-15T09:47:32.669Z,15.79
2023-04-15T09:50:05.050Z,15.84
2023-04-15T09:52:44.631Z,16.00
2023-04-15T09:55:19.535Z,16.10
2023-04-15T09:57:51.688Z,15.91
2023-04-15T10:00:23.876Z,15.60
2023-04-15T10:02:56.442Z,15.53
2023-04-15T10:05:29.861Z,15.87
2023-04-15T10:08:04.610Z,16.23
2023-04-15T10:10:37.015Z,16.47
2023-04-15T10:13:11.384Z,16.80
2023-04-15T10:15:47.729Z,17.07
2023-04-15T10:18:22.888Z,17.49
2023-04-15T10:20:55.792Z,17.90
2023-04-15T10:23:29.179Z,18.10
2023-04-15T10:26:01.947Z,18.07
2023-04-15T10:28:34.355Z,17.64
2023-04-15T10:31:08.882Z,17.17
2023-04-15T10:33:41.852Z,16.96
2023-04-15T10:36:15.550Z,16.79
2023-04-15T10:38:48.382Z,16.62
2023-04-15T10:41:22.977Z,16.49
2023-04-15T10:43:57.973Z,16.34
2023-04-15T10:46:49.443Z,16.92
2023-04-15T10:49:29.204Z,17.39
2023-04-15T10:52:03.494Z,17.42
2023-04-15T10:54:38.993Z,17.37
2023-04-15T10:57:23.975Z,17.21
2023-04-15T11:00:14.411Z,17.28
2023-04-15T11:02:49.562Z,17.47
2023-04-15T11:05:23.513Z,17.86
2023-04-15T11:07:57.519Z,18.32
2023-04-15T11:10:55.634Z,18.06
2023-04-15T11:13:34.432Z,17.58
2023-04-15T11:16:07.709Z,17.32
2023-04-15T11:18:40.198Z,17.02
2023-04-15T11:21:12.367Z,16.83
2023-04-15T11:23:47.616Z,16.54
2023-04-15T11:26:19.874Z,16.34
2023-04-15T11:28:52.062Z,16.13
2023-04-15T11:31:24.776Z,16.17
2023-04-15T11:34:01.822Z,16.26
2023-04-15T11:36:34.837Z,16.58
2023-04-15T11:39:10.278Z,17.09
2023-04-15T11:41:44.427Z,18.00
2023-04-15T11:44:20.821Z,18.81
2023-04-15T11:46:53.090Z,18.89
2023-04-15T11:49:35.296Z,18.91
2023-04-15T11:52:13.716Z,19.20
2023-04-15T11:54:46.174Z,19.76
2023-04-15T11:57:18.716Z,20.42
2023-04-15T11:59:51.260Z,20.92
2023-04-15T12:02:32.143Z,20.77
2023-04-15T12:05:10.006Z,20.77
2023-04-15T12:08:04.166Z,21.00
2023-04-15T12:10:36.953Z,21.33
2023-04-15T12:13:12.697Z,21.75
2023-04-15T12:15:45.119Z,22.00
2023-04-15T12:18:22.361Z,22.37
2023-04-15T12:20:54.826Z,22.69
2023-04-15T12:23:26.889Z,22.35
2023-04-15T12:25:59.114Z,21.64
2023-04-15T12:28:33.496Z,21.51
2023-04-15T12:31:12.127Z,21.30
2023-04-15T12:33:44.484Z,21.36
2023-04-15T12:36:17.260Z,21.50
2023-04-15T12:38:49.439Z,22.36
2023-04-15T12:41:24.482Z,23.12
2023-04-15T12:43:56.832Z,23.41
2023-04-15T12:46:29.565Z,24.27
2023-04-15T12:49:01.795Z,25.12
2023-04-15T12:51:34.109Z,25.32
2023-04-15T12:54:06.625Z,25.52
2023-04-15T12:56:39.062Z,25.36
2023-04-15T12:59:11.107Z,24.99
2023-04-15T13:01:43.592Z,24.37
2023-04-15T13:04:16.616Z,23.88
2023-04-15T13:06:49.024Z,23.62
2023-04-15T13:09:21.521Z,23.18
2023-04-15T13:11:54.610Z,22.82
2023-04-15T13:14:27.339Z,22.34
2023-04-15T13:16:59.569Z,22.01
2023-04-15T13:19:32.330Z,21.42
2023-04-15T13:22:04.478Z,20.77
2023-04-15T13:24:37.228Z,20.47
2023-04-15T13:27:09.572Z,20.27
2023-04-15T13:29:42.605Z,20.77
2023-04-15T13:32:14.890Z,22.15
2023-04-15T13:34:47.327Z,23.61
2023-04-15T13:37:19.617Z,24.72
2023-04-15T13:39:52.314Z,25.58
2023-04-15T13:42:24.661Z,26.40
2023-04-15T13:44:56.918Z,26.97
2023-04-15T13:47:29.185Z,27.25
2023-04-15T13:50:01.523Z,27.76
2023-04-15T13:52:33.981Z,28.78
2023-04-15T13:55:22.388Z,29.90
2023-04-15T13:57:56.290Z,30.79
2023-04-15T14:00:28.482Z,31.33
2023-04-15T14:03:00.821Z,31.78
2023-04-15T14:05:33.950Z,31.82
2023-04-15T14:08:06.314Z,31.12
2023-04-15T14:10:39.351Z,29.17
2023-04-15T14:13:11.670Z,28.16
2023-04-15T14:15:44.254Z,27.46
2023-04-15T14:18:16.616Z,26.47
2023-04-15T14:20:48.892Z,25.21
2023-04-15T14:23:21.469Z,24.19
2023-04-15T14:25:54.512Z,24.01
2023-04-15T14:28:27.764Z,23.01
2023-04-15T14:31:01.043Z,21.94
2023-04-15T14:33:33.920Z,21.78
2023-04-15T14:36:07.876Z,21.48
2023-04-15T14:38:41.449Z,21.13
2023-04-15T14:41:14.029Z,20.73
2023-04-15T14:43:46.259Z,20.23
2023-04-15T14:46:22.012Z,19.91
2023-04-15T14:48:54.488Z,19.61
2023-04-15T14:51:27.145Z,19.33
2023-04-15T14:53:59.775Z,19.03
2023-04-15T14:56:32.227Z,18.84
2023-04-15T14:59:04.810Z,18.63
2023-04-15T15:01:38.400Z,18.40
2023-04-15T15:04:13.139Z,18.27
2023-04-15T15:06:47.912Z,18.15
2023-04-15T15:09:24.079Z,18.02
2023-04-15T15:11:57.362Z,17.90
2023-04-15T15:14:30.288Z,17.77
2023-04-15T15:17:02.861Z,17.61
2023-04-15T15:19:35.292Z,17.49
2023-04-15T15:22:08.081Z,17.40
2023-04-15T15:24:40.609Z,17.34
2023-04-15T15:27:13.352Z,17.25
2023-04-15T15:29:46.225Z,17.14
2023-04-15T15:32:18.461Z,17.10
2023-04-15T15:34:51.278Z,17.06
2023-04-15T15:37:23.694Z,17.04
2023-04-15T15:39:57.194Z,16.99
2023-04-15T15:42:32.594Z,16.85
2023-04-15T15:45:06.548Z,16.76
2023-04-15T15:47:38.827Z,16.68
2023-04-15T15:50:12.789Z,16.57
2023-04-15T15:52:45.434Z,16.44
2023-04-15T15:55:18.144Z,16.37
2023-04-15T15:57:51.641Z,16.21
2023-04-15T16:00:24.074Z,15.89
2023-04-15T16:05:34.118Z,15.56
2023-04-15T16:08:06.715Z,15.10
2023-04-15T16:10:39.040Z,14.71
2023-04-15T16:13:11.718Z,14.35
2023-04-15T16:15:43.948Z,14.05
2023-04-15T16:18:16.658Z,13.79
2023-04-15T16:20:48.839Z,13.43
2023-04-15T16:23:23.971Z,13.09
2023-04-15T16:25:56.411Z,12.73
2023-04-15T16:28:29.097Z,12.57
2023-04-15T16:31:01.654Z,12.43
2023-04-15T16:33:34.404Z,12.30
2023-04-15T16:36:08.269Z,12.15
2023-04-15T16:38:40.532Z,12.02
2023-04-15T16:41:12.848Z,11.94
2023-04-15T16:43:45.324Z,11.88
2023-04-15T16:46:17.519Z,11.89
2023-04-15T16:48:49.845Z,11.78
2023-04-15T16:51:21.940Z,11.64
2023-04-15T16:53:54.363Z,11.54
2023-04-15T16:56:27.245Z,11.41
2023-04-15T16:58:59.562Z,11.30
2023-04-15T17:01:31.885Z,11.24
2023-04-15T17:04:05.892Z,11.17
2023-04-15T17:06:38.347Z,11.14
2023-04-15T17:09:10.548Z,11.10
2023-04-15T17:11:44.719Z,11.08
2023-04-15T17:14:16.875Z,11.03
2023-04-15T17:16:48.992Z,10.97
2023-04-15T17:19:21.262Z,10.95
2023-04-15T17:21:54.918Z,10.92
2023-04-15T17:24:27.626Z,10.88
2023-04-15T17:27:00.673Z,10.82
2023-04-15T17:29:34.236Z,10.78
2023-04-15T17:32:07.096Z,10.70
2023-04-15T17:34:50.252Z,10.66
2023-04-15T17:37:23.423Z,10.61
2023-04-15T17:39:55.611Z,10.52
2023-04-15T17:42:27.742Z,10.47
2023-04-15T17:44:59.806Z,10.44
2023-04-15T17:47:32.106Z,10.40
2023-04-15T17:50:05.162Z,10.42
2023-04-15T17:52:37.528Z,10.43
2023-04-15T17:55:11.224Z,10.43
2023-04-15T17:57:43.480Z,10.37
2023-04-15T18:00:17.936Z,10.30
2023-04-15T18:02:50.723Z,10.18
2023-04-15T18:05:23.307Z,10.10
2023-04-15T18:07:56.403Z,10.01
2023-04-15T18:10:29.089Z,9.90
2023-04-15T18:13:03.587Z,9.91
2023-04-15T18:15:36.264Z,9.98
2023-04-15T18:18:08.943Z,10.02
2023-04-15T18:20:41.519Z,10.04
2023-04-15T18:23:14.618Z,10.03
2023-04-15T18:25:46.987Z,10.02
2023-04-15T18:28:20.100Z,9.97
2023-04-15T18:30:53.703Z,9.96
2023-04-15T18:33:28.946Z,9.89
2023-04-15T18:36:02.592Z,9.86
2023-04-15T18:38:34.994Z,9.91
2023-04-15T18:41:09.498Z,9.95
2023-04-15T18:43:43.292Z,9.96
2023-04-15T18:46:16.945Z,9.99
2023-04-15T18:48:49.378Z,10.00
2023-04-15T18:51:21.600Z,9.93
2023-04-15T18:53:54.560Z,9.86
2023-04-15T18:56:27.116Z,9.80
2023-04-15T18:59:08.893Z,9.80
2023-04-15T19:01:52.978Z,9.84
2023-04-15T19:04:25.915Z,9.92
2023-04-15T19:06:59.114Z,10.01
2023-04-15T19:09:32.295Z,10.03
2023-04-15T19:12:05.858Z,10.08
2023-04-15T19:14:38.855Z,10.12
2023-04-15T19:17:11.112Z,10.21
2023-04-15T19:19:43.829Z,10.26
2023-04-15T19:22:16.689Z,10.21
2023-04-15T19:24:49.797Z,10.23
2023-04-15T19:27:25.250Z,10.27
2023-04-15T19:29:57.057Z,10.33
2023-04-15T19:32:29.978Z,10.28
2023-04-15T19:35:02.620Z,10.35
2023-04-15T19:37:35.283Z,10.47
2023-04-15T19:40:09.796Z,10.51
2023-04-15T19:42:42.526Z,10.51
2023-04-15T19:45:15.188Z,10.43
2023-04-15T19:47:47.438Z,10.21
2023-04-15T19:50:25.024Z,10.03
2023-04-15T19:52:57.638Z,9.92
2023-04-15T19:55:30.164Z,9.92
2023-04-15T19:58:02.590Z,10.00
2023-04-15T20:00:35.287Z,10.09
2023-04-15T20:03:08.038Z,10.10
2023-04-15T20:05:40.658Z,10.12
2023-04-15T20:08:13.251Z,10.12
2023-04-15T20:10:45.721Z,10.13
2023-04-15T20:13:18.142Z,10.06
2023-04-15T20:15:50.507Z,9.95
2023-04-15T20:18:22.798Z,9.91
2023-04-15T20:20:55.428Z,9.91
2023-04-15T20:23:27.942Z,9.93
2023-04-15T20:26:00.779Z,9.93
2023-04-15T20:28:34.642Z,9.96
2023-04-15T20:31:07.448Z,9.99
2023-04-15T20:33:39.853Z,10.03
2023-04-15T20:36:14.725Z,10.05
2023-04-15T20:38:46.903Z,10.05
2023-04-15T20:41:19.111Z,10.09
2023-04-15T20:43:51.344Z,10.06
2023-04-15T20:46:24.605Z,9.98
2023-04-15T20:48:58.993Z,9.85
2023-04-15T20:51:37.346Z,9.60
2023-04-15T20:54:09.548Z,9.44
2023-04-15T20:56:41.741Z,9.38
2023-04-15T20:59:13.800Z,9.39
2023-04-15T21:01:46.203Z,9.44
2023-04-15T21:04:18.584Z,9.56
2023-04-15T21:06:52.317Z,9.55
2023-04-15T21:09:24.679Z,9.50
2023-04-15T21:12:01.584Z,9.47
2023-04-15T21:14:36.022Z,9.34
2023-04-15T21:17:11.157Z,9.24
2023-04-15T21:19:44.035Z,9.17
2023-04-15T21:22:16.361Z,9.07
2023-04-15T21:24:48.607Z,9.01
2023-04-15T21:27:20.830Z,9.04
2023-04-15T21:29:53.117Z,9.09
2023-04-15T21:32:25.282Z,9.18
2023-04-15T21:34:57.497Z,9.14
2023-04-15T21:37:29.612Z,9.06
2023-04-15T21:40:01.899Z,9.05
2023-04-15T21:42:34.192Z,9.01
2023-04-15T21:45:07.077Z,8.90
2023-04-15T21:48:00.761Z,8.84
2023-04-15T21:50:31.483Z,8.81
2023-04-15T21:53:04.082Z,8.89
2023-04-15T21:55:36.241Z,8.97
2023-04-15T21:58:08.434Z,9.04
2023-04-15T22:00:40.919Z,9.06
2023-04-15T22:03:13.463Z,9.04
2023-04-15T22:05:47.852Z,9.00
2023-04-15T22:08:20.012Z,8.93
2023-04-15T22:10:52.101Z,8.90
2023-04-15T22:13:24.138Z,8.83
2023-04-15T22:15:56.786Z,8.78
2023-04-15T22:18:28.852Z,8.94
2023-04-15T22:21:01.677Z,9.07
2023-04-15T22:23:33.715Z,9.18
2023-04-15T22:26:06.927Z,9.18
2023-04-15T22:28:39.033Z,9.17
2023-04-15T22:31:11.579Z,9.10
2023-04-15T22:33:43.661Z,9.07
2023-04-15T22:36:15.830Z,9.12
2023-04-15T22:38:47.989Z,9.15
2023-04-15T22:41:20.132Z,9.15
2023-04-15T22:43:52.242Z,9.08
2023-04-15T22:46:24.437Z,9.05
2023-04-15T22:48:56.560Z,9.02
2023-04-15T22:51:29.218Z,8.95
2023-04-15T22:54:01.676Z,8.89
2023-04-15T22:56:34.233Z,8.84
2023-04-15T22:59:06.627Z,8.83
2023-04-15T23:01:39.423Z,8.76
2023-04-15T23:04:23.147Z,8.74
2023-04-15T23:06:57.444Z,8.80
2023-04-15T23:09:29.608Z,8.82
2023-04-15T23:12:01.709Z,8.91
2023-04-15T23:14:33.836Z,9.02
2023-04-15T23:17:06.053Z,8.90
2023-04-15T23:19:38.175Z,8.70
2023-04-15T23:22:10.771Z,8.63
2023-04-15T23:24:42.822Z,8.65
2023-04-15T23:27:14.985Z,8.58
2023-04-15T23:29:47.333Z,8.56
2023-04-15T23:32:19.377Z,8.63
2023-04-15T23:34:52.407Z,8.69
2023-04-15T23:37:24.561Z,8.63
2023-04-15T23:39:56.804Z,8.60
2023-04-15T23:42:28.988Z,8.57
2023-04-15T23:45:01.084Z,8.50
2023-04-15T23:47:33.198Z,8.39
2023-04-15T23:50:05.523Z,8.27
2023-04-15T23:52:37.762Z,8.14
2023-04-15T23:55:11.639Z,8.04
2023-04-15T23:57:44.103Z,7.98
